Rocky Nook, Massachusetts
Current Conditions -  °F | °C
As of 6:52 PM on Thursday 18 Dec 2014 (Local Time) from KPYM Reporting Station
Clear Clear  
Wind Chill: 32°   Ceiling: Unl
Heat Index: 37°   Visibility: 10mi
Dew Point: 28°   Wind: 7mph
Humidity: 70%   Direction: 260°W
Pressure: 29.85"   Gusts: NA
Location:  41.9862°N, 70.748°W
Report Text: KPYM 182352Z AUTO 26006KT 10SM CLR 03/M02 A2985 RMK AO2 SLP110 T00281022 10067 20028 53014
Loading
Personal Weather Stations






























Interactive Weather Map New forecast layout! Learn more

10-Day Weather Forecast

Advertisements
Track Severe Weather on mobile